sensor_id;sensor_type;location;lat;lon;timestamp;temperature;humidity
45785;DHT22;31489;51.404;5.474;2022-09-27T00:00:22;14.00;80.90
45785;DHT22;31489;51.404;5.474;2022-09-27T00:02:47;14.00;80.90
45785;DHT22;31489;51.404;5.474;2022-09-27T00:05:14;13.90;80.90
45785;DHT22;31489;51.404;5.474;2022-09-27T00:07:39;13.90;80.80
45785;DHT22;31489;51.404;5.474;2022-09-27T00:10:05;13.90;81.10
45785;DHT22;31489;51.404;5.474;2022-09-27T00:12:31;13.90;81.20
45785;DHT22;31489;51.404;5.474;2022-09-27T00:14:57;13.90;81.30
45785;DHT22;31489;51.404;5.474;2022-09-27T00:17:22;13.90;81.20
45785;DHT22;31489;51.404;5.474;2022-09-27T00:19:48;13.90;81.30
45785;DHT22;31489;51.404;5.474;2022-09-27T00:22:14;13.90;81.30
45785;DHT22;31489;51.404;5.474;2022-09-27T00:24:39;13.80;81.10
45785;DHT22;31489;51.404;5.474;2022-09-27T00:27:05;13.80;81.30
45785;DHT22;31489;51.404;5.474;2022-09-27T00:29:30;13.80;81.30
45785;DHT22;31489;51.404;5.474;2022-09-27T00:31:56;13.80;81.20
45785;DHT22;31489;51.404;5.474;2022-09-27T00:34:24;13.80;81.80
45785;DHT22;31489;51.404;5.474;2022-09-27T00:36:51;13.80;81.20
45785;DHT22;31489;51.404;5.474;2022-09-27T00:39:17;13.80;81.20
45785;DHT22;31489;51.404;5.474;2022-09-27T00:41:44;13.70;81.10
45785;DHT22;31489;51.404;5.474;2022-09-27T00:47:19;13.70;81.10
45785;DHT22;31489;51.404;5.474;2022-09-27T00:49:56;13.70;80.90
45785;DHT22;31489;51.404;5.474;2022-09-27T00:52:23;13.70;81.10
45785;DHT22;31489;51.404;5.474;2022-09-27T00:54:58;13.70;81.30
45785;DHT22;31489;51.404;5.474;2022-09-27T00:57:26;13.70;81.30
45785;DHT22;31489;51.404;5.474;2022-09-27T01:00:02;13.70;81.40
45785;DHT22;31489;51.404;5.474;2022-09-27T01:02:28;13.70;81.50
45785;DHT22;31489;51.404;5.474;2022-09-27T01:04:56;13.70;81.50
45785;DHT22;31489;51.404;5.474;2022-09-27T01:07:21;13.70;81.50
45785;DHT22;31489;51.404;5.474;2022-09-27T01:09:47;13.70;81.60
45785;DHT22;31489;51.404;5.474;2022-09-27T01:12:34;13.70;81.50
45785;DHT22;31489;51.404;5.474;2022-09-27T01:26:18;13.70;80.70
45785;DHT22;31489;51.404;5.474;2022-09-27T01:39:49;13.70;81.10
45785;DHT22;31489;51.404;5.474;2022-09-27T01:42:25;13.70;80.80
45785;DHT22;31489;51.404;5.474;2022-09-27T01:47:51;13.70;80.70
45785;DHT22;31489;51.404;5.474;2022-09-27T01:50:26;13.70;80.50
45785;DHT22;31489;51.404;5.474;2022-09-27T01:53:00;13.70;80.50
45785;DHT22;31489;51.404;5.474;2022-09-27T01:55:30;13.70;80.40
45785;DHT22;31489;51.404;5.474;2022-09-27T01:58:02;13.70;80.30
45785;DHT22;31489;51.404;5.474;2022-09-27T02:00:31;13.70;80.30
45785;DHT22;31489;51.404;5.474;2022-09-27T02:03:10;13.60;80.10
45785;DHT22;31489;51.404;5.474;2022-09-27T02:05:59;13.60;79.80
45785;DHT22;31489;51.404;5.474;2022-09-27T02:10:59;13.50;80.00
45785;DHT22;31489;51.404;5.474;2022-09-27T02:13:36;13.60;79.80
45785;DHT22;31489;51.404;5.474;2022-09-27T02:24:27;13.40;79.10
45785;DHT22;31489;51.404;5.474;2022-09-27T02:27:11;13.40;79.20
45785;DHT22;31489;51.404;5.474;2022-09-27T02:29:42;13.40;79.20
45785;DHT22;31489;51.404;5.474;2022-09-27T02:32:09;13.40;79.50
45785;DHT22;31489;51.404;5.474;2022-09-27T02:34:35;13.30;79.60
45785;DHT22;31489;51.404;5.474;2022-09-27T02:37:02;13.40;79.50
45785;DHT22;31489;51.404;5.474;2022-09-27T02:39:28;13.30;79.50
45785;DHT22;31489;51.404;5.474;2022-09-27T02:41:54;13.30;79.40
45785;DHT22;31489;51.404;5.474;2022-09-27T02:44:23;13.30;79.50
45785;DHT22;31489;51.404;5.474;2022-09-27T02:52:47;13.30;79.20
45785;DHT22;31489;51.404;5.474;2022-09-27T03:01:11;13.30;78.70
45785;DHT22;31489;51.404;5.474;2022-09-27T03:06:20;13.20;78.10
45785;DHT22;31489;51.404;5.474;2022-09-27T03:08:48;13.20;78.50
45785;DHT22;31489;51.404;5.474;2022-09-27T03:11:14;13.10;78.90
45785;DHT22;31489;51.404;5.474;2022-09-27T03:13:40;13.10;79.00
45785;DHT22;31489;51.404;5.474;2022-09-27T03:16:08;13.10;79.00
45785;DHT22;31489;51.404;5.474;2022-09-27T03:18:33;13.10;79.10
45785;DHT22;31489;51.404;5.474;2022-09-27T03:20:59;13.10;79.20
45785;DHT22;31489;51.404;5.474;2022-09-27T03:23:25;13.10;79.30
45785;DHT22;31489;51.404;5.474;2022-09-27T03:25:50;13.00;79.30
45785;DHT22;31489;51.404;5.474;2022-09-27T03:28:17;13.00;79.30
45785;DHT22;31489;51.404;5.474;2022-09-27T03:30:46;13.00;79.30
45785;DHT22;31489;51.404;5.474;2022-09-27T03:33:11;13.00;79.30
45785;DHT22;31489;51.404;5.474;2022-09-27T03:35:38;13.00;79.30
45785;DHT22;31489;51.404;5.474;2022-09-27T03:38:04;13.00;79.40
45785;DHT22;31489;51.404;5.474;2022-09-27T03:40:31;13.00;79.50
45785;DHT22;31489;51.404;5.474;2022-09-27T03:42:57;13.00;79.50
45785;DHT22;31489;51.404;5.474;2022-09-27T03:45:22;13.00;79.60
45785;DHT22;31489;51.404;5.474;2022-09-27T03:47:48;13.00;79.60
45785;DHT22;31489;51.404;5.474;2022-09-27T03:50:14;12.90;79.70
45785;DHT22;31489;51.404;5.474;2022-09-27T03:52:41;12.90;79.80
45785;DHT22;31489;51.404;5.474;2022-09-27T03:55:07;12.90;79.80
45785;DHT22;31489;51.404;5.474;2022-09-27T03:57:33;12.90;79.80
45785;DHT22;31489;51.404;5.474;2022-09-27T03:59:59;12.90;79.90
45785;DHT22;31489;51.404;5.474;2022-09-27T04:02:25;12.90;79.80
45785;DHT22;31489;51.404;5.474;2022-09-27T04:04:51;12.90;79.80
45785;DHT22;31489;51.404;5.474;2022-09-27T04:07:17;12.90;80.00
45785;DHT22;31489;51.404;5.474;2022-09-27T04:09:43;12.90;80.20
45785;DHT22;31489;51.404;5.474;2022-09-27T04:12:10;12.90;80.20
45785;DHT22;31489;51.404;5.474;2022-09-27T04:14:36;12.90;80.10
45785;DHT22;31489;51.404;5.474;2022-09-27T04:17:02;12.90;80.00
45785;DHT22;31489;51.404;5.474;2022-09-27T04:19:27;12.90;80.00
45785;DHT22;31489;51.404;5.474;2022-09-27T04:21:53;12.90;80.00
45785;DHT22;31489;51.404;5.474;2022-09-27T04:24:18;12.90;80.20
45785;DHT22;31489;51.404;5.474;2022-09-27T04:26:44;12.90;80.00
45785;DHT22;31489;51.404;5.474;2022-09-27T04:29:10;12.90;80.10
45785;DHT22;31489;51.404;5.474;2022-09-27T04:31:36;12.90;80.10
45785;DHT22;31489;51.404;5.474;2022-09-27T04:34:05;12.90;80.00
45785;DHT22;31489;51.404;5.474;2022-09-27T04:36:32;12.90;79.90
45785;DHT22;31489;51.404;5.474;2022-09-27T04:38:59;12.90;80.10
45785;DHT22;31489;51.404;5.474;2022-09-27T04:41:26;12.80;79.90
45785;DHT22;31489;51.404;5.474;2022-09-27T04:43:55;12.80;80.00
45785;DHT22;31489;51.404;5.474;2022-09-27T04:46:22;12.80;80.10
45785;DHT22;31489;51.404;5.474;2022-09-27T04:48:48;12.90;80.20
45785;DHT22;31489;51.404;5.474;2022-09-27T04:51:14;12.80;80.10
45785;DHT22;31489;51.404;5.474;2022-09-27T04:53:45;12.80;80.00
45785;DHT22;31489;51.404;5.474;2022-09-27T04:56:11;12.80;79.90
45785;DHT22;31489;51.404;5.474;2022-09-27T04:58:37;12.80;79.90
45785;DHT22;31489;51.404;5.474;2022-09-27T05:01:03;12.90;79.90
45785;DHT22;31489;51.404;5.474;2022-09-27T05:03:30;12.90;80.10
45785;DHT22;31489;51.404;5.474;2022-09-27T05:05:56;12.90;80.10
45785;DHT22;31489;51.404;5.474;2022-09-27T05:08:22;12.90;80.00
45785;DHT22;31489;51.404;5.474;2022-09-27T05:10:48;12.90;79.90
45785;DHT22;31489;51.404;5.474;2022-09-27T05:13:14;12.90;79.80
45785;DHT22;31489;51.404;5.474;2022-09-27T05:15:40;12.80;79.60
45785;DHT22;31489;51.404;5.474;2022-09-27T05:18:06;12.80;79.60
45785;DHT22;31489;51.404;5.474;2022-09-27T05:20:35;12.90;79.70
45785;DHT22;31489;51.404;5.474;2022-09-27T05:23:01;12.80;79.90
45785;DHT22;31489;51.404;5.474;2022-09-27T05:25:29;12.80;79.90
45785;DHT22;31489;51.404;5.474;2022-09-27T05:27:56;12.80;79.80
45785;DHT22;31489;51.404;5.474;2022-09-27T05:30:23;12.80;79.70
45785;DHT22;31489;51.404;5.474;2022-09-27T05:32:50;12.80;79.70
45785;DHT22;31489;51.404;5.474;2022-09-27T05:35:16;12.80;79.80
45785;DHT22;31489;51.404;5.474;2022-09-27T05:37:53;12.80;80.00
45785;DHT22;31489;51.404;5.474;2022-09-27T05:40:19;12.80;79.70
45785;DHT22;31489;51.404;5.474;2022-09-27T05:42:49;12.80;79.40
45785;DHT22;31489;51.404;5.474;2022-09-27T05:45:15;12.80;79.60
45785;DHT22;31489;51.404;5.474;2022-09-27T05:47:41;12.80;79.60
45785;DHT22;31489;51.404;5.474;2022-09-27T05:50:06;12.80;79.30
45785;DHT22;31489;51.404;5.474;2022-09-27T05:52:33;12.80;79.20
45785;DHT22;31489;51.404;5.474;2022-09-27T05:54:58;12.80;79.20
45785;DHT22;31489;51.404;5.474;2022-09-27T05:57:24;12.80;79.10
45785;DHT22;31489;51.404;5.474;2022-09-27T05:59:49;12.80;79.10
45785;DHT22;31489;51.404;5.474;2022-09-27T06:02:15;12.80;79.00
45785;DHT22;31489;51.404;5.474;2022-09-27T06:04:41;12.80;79.00
45785;DHT22;31489;51.404;5.474;2022-09-27T06:07:07;12.80;79.00
45785;DHT22;31489;51.404;5.474;2022-09-27T06:09:32;12.70;79.10
45785;DHT22;31489;51.404;5.474;2022-09-27T06:11:58;12.70;79.20
45785;DHT22;31489;51.404;5.474;2022-09-27T06:14:24;12.70;79.20
45785;DHT22;31489;51.404;5.474;2022-09-27T06:16:49;12.70;79.30
45785;DHT22;31489;51.404;5.474;2022-09-27T06:19:15;12.70;79.20
45785;DHT22;31489;51.404;5.474;2022-09-27T06:21:40;12.70;79.10
45785;DHT22;31489;51.404;5.474;2022-09-27T06:24:06;12.80;79.40
45785;DHT22;31489;51.404;5.474;2022-09-27T06:26:32;12.80;79.40
45785;DHT22;31489;51.404;5.474;2022-09-27T06:28:58;12.70;79.20
45785;DHT22;31489;51.404;5.474;2022-09-27T06:31:23;12.70;79.40
45785;DHT22;31489;51.404;5.474;2022-09-27T06:33:49;12.80;79.30
45785;DHT22;31489;51.404;5.474;2022-09-27T06:36:14;12.80;79.30
45785;DHT22;31489;51.404;5.474;2022-09-27T06:38:40;12.70;79.50
45785;DHT22;31489;51.404;5.474;2022-09-27T06:41:06;12.80;79.60
45785;DHT22;31489;51.404;5.474;2022-09-27T06:43:33;12.80;79.60
45785;DHT22;31489;51.404;5.474;2022-09-27T06:46:00;12.80;79.60
45785;DHT22;31489;51.404;5.474;2022-09-27T06:48:30;12.80;79.70
45785;DHT22;31489;51.404;5.474;2022-09-27T06:50:57;12.80;79.60
45785;DHT22;31489;51.404;5.474;2022-09-27T06:53:23;12.80;79.60
45785;DHT22;31489;51.404;5.474;2022-09-27T06:55:49;12.80;79.60
45785;DHT22;31489;51.404;5.474;2022-09-27T06:58:18;12.90;79.80
45785;DHT22;31489;51.404;5.474;2022-09-27T07:01:02;12.90;79.80
45785;DHT22;31489;51.404;5.474;2022-09-27T07:03:28;12.90;79.90
45785;DHT22;31489;51.404;5.474;2022-09-27T07:06:01;12.90;79.60
45785;DHT22;31489;51.404;5.474;2022-09-27T07:08:28;12.90;79.50
45785;DHT22;31489;51.404;5.474;2022-09-27T07:11:05;12.90;79.40
45785;DHT22;31489;51.404;5.474;2022-09-27T07:13:31;12.90;79.00
45785;DHT22;31489;51.404;5.474;2022-09-27T07:15:59;12.90;79.50
45785;DHT22;31489;51.404;5.474;2022-09-27T07:18:25;12.80;79.70
45785;DHT22;31489;51.404;5.474;2022-09-27T07:20:51;12.80;79.90
45785;DHT22;31489;51.404;5.474;2022-09-27T07:23:17;12.80;80.20
45785;DHT22;31489;51.404;5.474;2022-09-27T07:25:43;12.90;80.40
45785;DHT22;31489;51.404;5.474;2022-09-27T07:28:13;12.90;80.30
45785;DHT22;31489;51.404;5.474;2022-09-27T07:30:39;12.90;80.30
45785;DHT22;31489;51.404;5.474;2022-09-27T07:33:06;12.90;80.60
45785;DHT22;31489;51.404;5.474;2022-09-27T07:35:33;12.90;80.60
45785;DHT22;31489;51.404;5.474;2022-09-27T07:38:01;12.90;81.20
45785;DHT22;31489;51.404;5.474;2022-09-27T07:40:28;13.00;80.70
45785;DHT22;31489;51.404;5.474;2022-09-27T07:42:55;13.00;80.70
45785;DHT22;31489;51.404;5.474;2022-09-27T07:45:21;13.00;80.80
45785;DHT22;31489;51.404;5.474;2022-09-27T07:47:47;13.10;80.90
45785;DHT22;31489;51.404;5.474;2022-09-27T07:50:13;13.10;81.00
45785;DHT22;31489;51.404;5.474;2022-09-27T07:52:40;13.10;81.00
45785;DHT22;31489;51.404;5.474;2022-09-27T07:55:08;13.10;80.90
45785;DHT22;31489;51.404;5.474;2022-09-27T07:57:35;13.20;80.90
45785;DHT22;31489;51.404;5.474;2022-09-27T08:00:04;13.20;81.00
45785;DHT22;31489;51.404;5.474;2022-09-27T08:02:30;13.20;80.90
45785;DHT22;31489;51.404;5.474;2022-09-27T08:05:00;13.20;80.90
45785;DHT22;31489;51.404;5.474;2022-09-27T08:07:26;13.20;80.80
45785;DHT22;31489;51.404;5.474;2022-09-27T08:09:52;13.20;80.80
45785;DHT22;31489;51.404;5.474;2022-09-27T08:12:17;13.20;80.90
45785;DHT22;31489;51.404;5.474;2022-09-27T08:14:46;13.20;80.90
45785;DHT22;31489;51.404;5.474;2022-09-27T08:17:15;13.30;80.80
45785;DHT22;31489;51.404;5.474;2022-09-27T08:19:41;13.30;80.80
45785;DHT22;31489;51.404;5.474;2022-09-27T08:22:10;13.30;80.90
45785;DHT22;31489;51.404;5.474;2022-09-27T08:24:37;13.30;80.80
45785;DHT22;31489;51.404;5.474;2022-09-27T08:27:02;13.30;80.70
45785;DHT22;31489;51.404;5.474;2022-09-27T08:29:29;13.30;80.70
45785;DHT22;31489;51.404;5.474;2022-09-27T08:31:55;13.30;80.80
45785;DHT22;31489;51.404;5.474;2022-09-27T08:34:22;13.30;81.00
45785;DHT22;31489;51.404;5.474;2022-09-27T08:36:48;13.20;80.90
45785;DHT22;31489;51.404;5.474;2022-09-27T08:39:14;13.20;81.00
45785;DHT22;31489;51.404;5.474;2022-09-27T08:42:00;13.20;81.00
45785;DHT22;31489;51.404;5.474;2022-09-27T08:44:48;13.20;81.00
45785;DHT22;31489;51.404;5.474;2022-09-27T08:47:24;13.20;81.00
45785;DHT22;31489;51.404;5.474;2022-09-27T08:52:32;13.20;81.30
45785;DHT22;31489;51.404;5.474;2022-09-27T08:55:03;13.20;81.50
45785;DHT22;31489;51.404;5.474;2022-09-27T08:57:30;13.20;81.50
45785;DHT22;31489;51.404;5.474;2022-09-27T09:00:11;13.20;82.20
45785;DHT22;31489;51.404;5.474;2022-09-27T09:02:37;13.20;81.70
45785;DHT22;31489;51.404;5.474;2022-09-27T09:05:31;13.20;81.50
45785;DHT22;31489;51.404;5.474;2022-09-27T09:10:49;13.20;82.00
45785;DHT22;31489;51.404;5.474;2022-09-27T09:13:42;13.20;81.70
45785;DHT22;31489;51.404;5.474;2022-09-27T09:22:11;13.30;82.00
45785;DHT22;31489;51.404;5.474;2022-09-27T09:24:51;13.30;82.20
45785;DHT22;31489;51.404;5.474;2022-09-27T09:27:36;13.30;82.30
45785;DHT22;31489;51.404;5.474;2022-09-27T09:35:19;13.40;82.80
45785;DHT22;31489;51.404;5.474;2022-09-27T09:37:58;13.40;82.70
45785;DHT22;31489;51.404;5.474;2022-09-27T09:40:40;13.50;82.70
45785;DHT22;31489;51.404;5.474;2022-09-27T09:45:59;13.40;82.40
45785;DHT22;31489;51.404;5.474;2022-09-27T09:48:42;13.40;82.40
45785;DHT22;31489;51.404;5.474;2022-09-27T09:51:14;13.50;82.20
45785;DHT22;31489;51.404;5.474;2022-09-27T09:54:01;13.50;82.60
45785;DHT22;31489;51.404;5.474;2022-09-27T09:56:43;13.50;82.20
45785;DHT22;31489;51.404;5.474;2022-09-27T09:59:16;13.50;82.70
45785;DHT22;31489;51.404;5.474;2022-09-27T10:01:44;13.60;82.50
45785;DHT22;31489;51.404;5.474;2022-09-27T10:04:17;13.60;82.20
45785;DHT22;31489;51.404;5.474;2022-09-27T10:06:44;13.60;82.10
45785;DHT22;31489;51.404;5.474;2022-09-27T10:09:13;13.60;82.40
45785;DHT22;31489;51.404;5.474;2022-09-27T10:11:42;13.60;82.30
45785;DHT22;31489;51.404;5.474;2022-09-27T10:14:17;13.60;82.40
45785;DHT22;31489;51.404;5.474;2022-09-27T10:16:52;13.60;81.30
45785;DHT22;31489;51.404;5.474;2022-09-27T10:19:27;13.60;81.10
45785;DHT22;31489;51.404;5.474;2022-09-27T10:22:02;13.60;81.10
45785;DHT22;31489;51.404;5.474;2022-09-27T10:24:28;13.60;81.40
45785;DHT22;31489;51.404;5.474;2022-09-27T10:26:58;13.50;81.40
45785;DHT22;31489;51.404;5.474;2022-09-27T10:29:32;13.60;81.40
45785;DHT22;31489;51.404;5.474;2022-09-27T10:32:00;13.50;81.50
45785;DHT22;31489;51.404;5.474;2022-09-27T10:34:32;13.50;80.50
45785;DHT22;31489;51.404;5.474;2022-09-27T10:37:20;13.50;80.60
45785;DHT22;31489;51.404;5.474;2022-09-27T10:39:47;13.50;81.00
45785;DHT22;31489;51.404;5.474;2022-09-27T10:42:42;13.60;81.30
45785;DHT22;31489;51.404;5.474;2022-09-27T10:47:53;13.60;80.90
45785;DHT22;31489;51.404;5.474;2022-09-27T10:50:25;13.60;81.10
45785;DHT22;31489;51.404;5.474;2022-09-27T10:55:31;13.70;79.70
45785;DHT22;31489;51.404;5.474;2022-09-27T10:57:58;13.70;80.10
45785;DHT22;31489;51.404;5.474;2022-09-27T11:00:35;13.70;80.40
45785;DHT22;31489;51.404;5.474;2022-09-27T11:03:14;13.60;80.50
45785;DHT22;31489;51.404;5.474;2022-09-27T11:05:40;13.70;79.90
45785;DHT22;31489;51.404;5.474;2022-09-27T11:13:33;13.60;80.40
45785;DHT22;31489;51.404;5.474;2022-09-27T11:16:19;13.60;80.60
45785;DHT22;31489;51.404;5.474;2022-09-27T11:24:33;13.60;79.80
45785;DHT22;31489;51.404;5.474;2022-09-27T11:29:53;13.60;79.10
45785;DHT22;31489;51.404;5.474;2022-09-27T11:38:01;13.60;79.20
45785;DHT22;31489;51.404;5.474;2022-09-27T11:40:56;13.60;79.70
45785;DHT22;31489;51.404;5.474;2022-09-27T11:46:23;13.70;80.00
45785;DHT22;31489;51.404;5.474;2022-09-27T11:49:19;13.80;80.60
45785;DHT22;31489;51.404;5.474;2022-09-27T11:56:59;14.00;79.90
45785;DHT22;31489;51.404;5.474;2022-09-27T12:05:26;14.10;78.50
45785;DHT22;31489;51.404;5.474;2022-09-27T12:10:50;14.30;78.70
45785;DHT22;31489;51.404;5.474;2022-09-27T12:13:33;14.30;79.50
45785;DHT22;31489;51.404;5.474;2022-09-27T12:16:01;14.40;79.00
45785;DHT22;31489;51.404;5.474;2022-09-27T12:18:31;14.50;79.70
45785;DHT22;31489;51.404;5.474;2022-09-27T12:21:03;14.60;79.60
45785;DHT22;31489;51.404;5.474;2022-09-27T12:23:39;14.70;78.30
45785;DHT22;31489;51.404;5.474;2022-09-27T12:26:21;14.80;78.30
45785;DHT22;31489;51.404;5.474;2022-09-27T12:29:04;14.90;78.10
45785;DHT22;31489;51.404;5.474;2022-09-27T12:31:53;15.00;78.60
45785;DHT22;31489;51.404;5.474;2022-09-27T12:37:02;15.30;77.40
45785;DHT22;31489;51.404;5.474;2022-09-27T12:42:24;15.50;75.40
45785;DHT22;31489;51.404;5.474;2022-09-27T12:44:50;15.60;76.60
45785;DHT22;31489;51.404;5.474;2022-09-27T12:52:34;15.90;77.30
45785;DHT22;31489;51.404;5.474;2022-09-27T13:08:34;16.20;75.60
45785;DHT22;31489;51.404;5.474;2022-09-27T13:14:19;16.10;73.60
45785;DHT22;31489;51.404;5.474;2022-09-27T13:16:47;16.10;74.50
45785;DHT22;31489;51.404;5.474;2022-09-27T13:24:53;16.00;73.20
45785;DHT22;31489;51.404;5.474;2022-09-27T13:32:37;15.90;74.60
45785;DHT22;31489;51.404;5.474;2022-09-27T13:35:19;15.90;75.50
45785;DHT22;31489;51.404;5.474;2022-09-27T13:37:49;15.80;75.80
45785;DHT22;31489;51.404;5.474;2022-09-27T13:43:11;15.70;75.30
45785;DHT22;31489;51.404;5.474;2022-09-27T13:48:18;15.60;73.50
45785;DHT22;31489;51.404;5.474;2022-09-27T13:50:49;15.50;73.60
45785;DHT22;31489;51.404;5.474;2022-09-27T13:53:27;15.40;74.00
45785;DHT22;31489;51.404;5.474;2022-09-27T13:55:54;15.40;74.00
45785;DHT22;31489;51.404;5.474;2022-09-27T13:58:34;15.30;74.40
45785;DHT22;31489;51.404;5.474;2022-09-27T14:03:51;15.30;75.30
45785;DHT22;31489;51.404;5.474;2022-09-27T14:06:31;15.30;75.40
45785;DHT22;31489;51.404;5.474;2022-09-27T14:09:04;15.30;75.00
45785;DHT22;31489;51.404;5.474;2022-09-27T14:11:37;15.30;76.30
45785;DHT22;31489;51.404;5.474;2022-09-27T14:14:04;15.30;76.00
45785;DHT22;31489;51.404;5.474;2022-09-27T14:16:33;15.40;76.50
45785;DHT22;31489;51.404;5.474;2022-09-27T14:19:01;15.40;76.30
45785;DHT22;31489;51.404;5.474;2022-09-27T14:21:37;15.40;76.60
45785;DHT22;31489;51.404;5.474;2022-09-27T14:27:03;15.50;76.00
45785;DHT22;31489;51.404;5.474;2022-09-27T14:29:32;15.50;76.10
45785;DHT22;31489;51.404;5.474;2022-09-27T14:32:26;15.50;75.70
45785;DHT22;31489;51.404;5.474;2022-09-27T14:35:14;15.50;74.60
45785;DHT22;31489;51.404;5.474;2022-09-27T14:38:00;15.50;74.80
45785;DHT22;31489;51.404;5.474;2022-09-27T14:40:27;15.60;75.70
45785;DHT22;31489;51.404;5.474;2022-09-27T14:42:55;15.60;75.30
45785;DHT22;31489;51.404;5.474;2022-09-27T14:45:26;15.50;74.80
45785;DHT22;31489;51.404;5.474;2022-09-27T14:47:52;15.50;74.40
45785;DHT22;31489;51.404;5.474;2022-09-27T14:50:27;15.50;74.80
45785;DHT22;31489;51.404;5.474;2022-09-27T14:52:55;15.50;74.40
45785;DHT22;31489;51.404;5.474;2022-09-27T14:55:25;15.40;74.70
45785;DHT22;31489;51.404;5.474;2022-09-27T14:57:55;15.40;74.60
45785;DHT22;31489;51.404;5.474;2022-09-27T15:00:30;15.30;74.60
45785;DHT22;31489;51.404;5.474;2022-09-27T15:02:59;15.30;74.30
45785;DHT22;31489;51.404;5.474;2022-09-27T15:05:29;15.20;74.60
45785;DHT22;31489;51.404;5.474;2022-09-27T15:07:57;15.20;74.60
45785;DHT22;31489;51.404;5.474;2022-09-27T15:10:27;15.20;74.10
45785;DHT22;31489;51.404;5.474;2022-09-27T15:12:56;15.20;74.30
45785;DHT22;31489;51.404;5.474;2022-09-27T15:15:28;15.10;74.70
45785;DHT22;31489;51.404;5.474;2022-09-27T15:17:56;15.10;75.10
45785;DHT22;31489;51.404;5.474;2022-09-27T15:20:30;15.10;74.80
45785;DHT22;31489;51.404;5.474;2022-09-27T15:23:03;15.10;74.40
45785;DHT22;31489;51.404;5.474;2022-09-27T15:25:41;15.10;74.10
45785;DHT22;31489;51.404;5.474;2022-09-27T15:28:15;15.00;74.00
45785;DHT22;31489;51.404;5.474;2022-09-27T15:30:53;15.00;74.50
45785;DHT22;31489;51.404;5.474;2022-09-27T15:33:28;15.00;74.50
45785;DHT22;31489;51.404;5.474;2022-09-27T15:35:58;15.00;74.30
45785;DHT22;31489;51.404;5.474;2022-09-27T15:38:30;15.00;74.80
45785;DHT22;31489;51.404;5.474;2022-09-27T15:41:05;15.00;75.00
45785;DHT22;31489;51.404;5.474;2022-09-27T15:43:40;15.00;74.90
45785;DHT22;31489;51.404;5.474;2022-09-27T15:46:26;15.00;74.60
45785;DHT22;31489;51.404;5.474;2022-09-27T15:49:22;15.00;74.40
45785;DHT22;31489;51.404;5.474;2022-09-27T15:51:53;15.00;74.30
45785;DHT22;31489;51.404;5.474;2022-09-27T15:54:20;15.00;74.80
45785;DHT22;31489;51.404;5.474;2022-09-27T15:56:47;14.90;74.50
45785;DHT22;31489;51.404;5.474;2022-09-27T15:59:34;14.90;74.60
45785;DHT22;31489;51.404;5.474;2022-09-27T16:02:05;14.80;74.40
45785;DHT22;31489;51.404;5.474;2022-09-27T16:04:34;14.70;74.90
45785;DHT22;31489;51.404;5.474;2022-09-27T16:07:00;14.60;74.80
45785;DHT22;31489;51.404;5.474;2022-09-27T16:09:26;14.60;75.00
45785;DHT22;31489;51.404;5.474;2022-09-27T16:11:52;14.50;75.10
45785;DHT22;31489;51.404;5.474;2022-09-27T16:14:18;14.40;75.40
45785;DHT22;31489;51.404;5.474;2022-09-27T16:16:53;14.30;75.40
45785;DHT22;31489;51.404;5.474;2022-09-27T16:19:21;14.30;75.80
45785;DHT22;31489;51.404;5.474;2022-09-27T16:21:47;14.30;76.40
45785;DHT22;31489;51.404;5.474;2022-09-27T16:24:13;14.20;76.70
45785;DHT22;31489;51.404;5.474;2022-09-27T16:26:39;14.20;76.70
45785;DHT22;31489;51.404;5.474;2022-09-27T16:29:10;14.20;77.00
45785;DHT22;31489;51.404;5.474;2022-09-27T16:31:38;14.10;76.70
45785;DHT22;31489;51.404;5.474;2022-09-27T16:34:04;14.20;77.00
45785;DHT22;31489;51.404;5.474;2022-09-27T16:36:29;14.10;77.20
45785;DHT22;31489;51.404;5.474;2022-09-27T16:38:55;14.10;77.50
45785;DHT22;31489;51.404;5.474;2022-09-27T16:41:21;14.20;78.00
45785;DHT22;31489;51.404;5.474;2022-09-27T16:43:47;14.20;78.10
45785;DHT22;31489;51.404;5.474;2022-09-27T16:46:14;14.20;78.00
45785;DHT22;31489;51.404;5.474;2022-09-27T16:48:43;14.20;78.30
45785;DHT22;31489;51.404;5.474;2022-09-27T16:51:16;14.20;78.50
45785;DHT22;31489;51.404;5.474;2022-09-27T16:54:02;14.20;78.40
45785;DHT22;31489;51.404;5.474;2022-09-27T16:56:30;14.20;78.20
45785;DHT22;31489;51.404;5.474;2022-09-27T16:58:57;14.20;78.10
45785;DHT22;31489;51.404;5.474;2022-09-27T17:01:23;14.20;78.60
45785;DHT22;31489;51.404;5.474;2022-09-27T17:03:50;14.30;78.40
45785;DHT22;31489;51.404;5.474;2022-09-27T17:06:17;14.20;78.30
45785;DHT22;31489;51.404;5.474;2022-09-27T17:08:45;14.30;78.30
45785;DHT22;31489;51.404;5.474;2022-09-27T17:11:15;14.30;78.10
45785;DHT22;31489;51.404;5.474;2022-09-27T17:13:42;14.20;77.90
45785;DHT22;31489;51.404;5.474;2022-09-27T17:16:10;14.20;78.20
45785;DHT22;31489;51.404;5.474;2022-09-27T17:18:37;14.20;77.90
45785;DHT22;31489;51.404;5.474;2022-09-27T17:21:04;14.20;78.10
45785;DHT22;31489;51.404;5.474;2022-09-27T17:23:30;14.20;78.20
45785;DHT22;31489;51.404;5.474;2022-09-27T17:28:41;14.10;77.30
45785;DHT22;31489;51.404;5.474;2022-09-27T17:31:09;14.10;77.70
45785;DHT22;31489;51.404;5.474;2022-09-27T17:33:39;14.10;78.00
45785;DHT22;31489;51.404;5.474;2022-09-27T17:36:14;14.10;78.00
45785;DHT22;31489;51.404;5.474;2022-09-27T17:38:42;14.00;78.10
45785;DHT22;31489;51.404;5.474;2022-09-27T17:41:10;14.00;78.20
45785;DHT22;31489;51.404;5.474;2022-09-27T17:43:37;14.00;78.30
45785;DHT22;31489;51.404;5.474;2022-09-27T17:46:06;14.00;78.70
45785;DHT22;31489;51.404;5.474;2022-09-27T17:48:32;13.90;78.40
45785;DHT22;31489;51.404;5.474;2022-09-27T17:51:17;13.90;78.30
45785;DHT22;31489;51.404;5.474;2022-09-27T17:53:42;13.90;78.30
45785;DHT22;31489;51.404;5.474;2022-09-27T17:56:09;13.80;78.60
45785;DHT22;31489;51.404;5.474;2022-09-27T17:58:35;13.80;78.90
45785;DHT22;31489;51.404;5.474;2022-09-27T18:01:09;13.80;78.60
45785;DHT22;31489;51.404;5.474;2022-09-27T18:03:35;13.80;78.90
45785;DHT22;31489;51.404;5.474;2022-09-27T18:06:08;13.80;78.70
45785;DHT22;31489;51.404;5.474;2022-09-27T18:08:34;13.80;78.60
45785;DHT22;31489;51.404;5.474;2022-09-27T18:13:30;13.70;78.60
45785;DHT22;31489;51.404;5.474;2022-09-27T18:15:56;13.80;78.90
45785;DHT22;31489;51.404;5.474;2022-09-27T18:18:23;13.70;78.90
45785;DHT22;31489;51.404;5.474;2022-09-27T18:20:53;13.70;79.10
45785;DHT22;31489;51.404;5.474;2022-09-27T18:23:19;13.70;78.70
45785;DHT22;31489;51.404;5.474;2022-09-27T18:25:52;13.70;78.80
45785;DHT22;31489;51.404;5.474;2022-09-27T18:28:19;13.60;78.60
45785;DHT22;31489;51.404;5.474;2022-09-27T18:30:45;13.60;78.80
45785;DHT22;31489;51.404;5.474;2022-09-27T18:33:10;13.60;78.50
45785;DHT22;31489;51.404;5.474;2022-09-27T18:35:36;13.60;78.60